createdAt,value
2018-07-03T00:04:12.198Z,77.50
2018-07-03T00:06:40.089Z,77.70
2018-07-03T00:09:08.788Z,79.30
2018-07-03T00:11:36.610Z,79.90
2018-07-03T00:14:04.701Z,79.50
2018-07-03T00:16:38.178Z,80.20
2018-07-03T00:19:06.059Z,80.70
2018-07-03T00:21:33.888Z,80.50
2018-07-03T00:26:29.390Z,81.00
2018-07-03T00:28:57.220Z,82.30
2018-07-03T00:31:25.067Z,82.80
2018-07-03T00:38:48.638Z,84.20
2018-07-03T00:41:16.480Z,84.70
2018-07-03T00:43:44.240Z,85.20
2018-07-03T00:46:12.044Z,85.90
2018-07-03T00:48:39.930Z,86.50
2018-07-03T00:53:35.391Z,86.90
2018-07-03T00:56:03.167Z,87.40
2018-07-03T00:58:30.983Z,88.50
2018-07-03T01:00:58.746Z,89.10
2018-07-03T01:03:26.523Z,89.10
2018-07-03T01:05:54.458Z,90.10
2018-07-03T01:08:22.361Z,90.60
2018-07-03T01:10:50.234Z,91.10
2018-07-03T01:13:18.122Z,91.20
2018-07-03T01:15:45.878Z,91.70
2018-07-03T01:18:13.783Z,92.20
2018-07-03T01:20:41.582Z,92.70
2018-07-03T01:23:09.372Z,93.30
2018-07-03T01:25:37.202Z,93.90
2018-07-03T01:30:32.625Z,94.30
2018-07-03T01:35:28.089Z,95.20
2018-07-03T01:37:55.866Z,95.70
2018-07-03T01:40:23.666Z,96.30
2018-07-03T01:45:19.314Z,97.90
2018-07-03T01:50:14.791Z,98.70
2018-07-03T01:52:42.591Z,99.20
2018-07-03T01:55:10.366Z,99.50
2018-07-03T02:00:06.986Z,99.90
2018-07-03T02:05:02.511Z,99.90
2018-07-03T02:07:30.378Z,99.90
2018-07-03T02:09:58.166Z,99.90
2018-07-03T02:14:53.638Z,99.90
2018-07-03T02:17:21.454Z,99.90
2018-07-03T02:22:17.007Z,99.90
2018-07-03T02:24:44.798Z,99.90
2018-07-03T02:27:12.554Z,99.90
2018-07-03T02:29:40.330Z,99.90
2018-07-03T02:32:08.182Z,99.90
2018-07-03T02:34:35.956Z,99.90
2018-07-03T02:37:03.880Z,99.90
2018-07-03T02:39:31.646Z,99.90
2018-07-03T02:41:59.441Z,99.90
2018-07-03T02:44:27.180Z,99.90
2018-07-03T02:46:55.072Z,99.90
2018-07-03T02:49:22.954Z,99.90
2018-07-03T02:51:50.872Z,99.90
2018-07-03T02:54:18.626Z,99.90
2018-07-03T02:56:46.493Z,99.90
2018-07-03T03:01:42.009Z,99.90
2018-07-03T03:04:09.881Z,99.90
2018-07-03T03:06:37.665Z,99.90
2018-07-03T03:11:34.857Z,99.90
2018-07-03T03:14:02.692Z,99.90
2018-07-03T03:16:30.506Z,99.90
2018-07-03T03:18:58.310Z,99.90
2018-07-03T03:21:26.188Z,99.90
2018-07-03T03:26:21.747Z,99.90
2018-07-03T03:28:49.575Z,99.90
2018-07-03T03:31:17.344Z,99.90
2018-07-03T03:33:45.113Z,99.90
2018-07-03T03:38:40.602Z,99.90
2018-07-03T03:41:08.710Z,99.90
2018-07-03T03:43:36.705Z,99.90
2018-07-03T03:46:04.595Z,99.90
2018-07-03T03:48:32.417Z,99.90
2018-07-03T03:53:27.920Z,99.90
2018-07-03T03:55:55.803Z,99.90
2018-07-03T03:58:23.619Z,99.90
2018-07-03T04:00:51.525Z,99.90
2018-07-03T04:03:19.292Z,99.90
2018-07-03T04:05:47.238Z,99.90
2018-07-03T04:08:14.989Z,99.90
2018-07-03T04:10:42.781Z,99.90
2018-07-03T04:13:10.767Z,99.90
2018-07-03T04:15:38.493Z,99.90
2018-07-03T04:18:06.394Z,99.90
2018-07-03T04:20:34.353Z,99.90
2018-07-03T04:23:02.110Z,99.90
2018-07-03T04:25:29.873Z,99.90
2018-07-03T04:27:57.657Z,99.90
2018-07-03T04:30:25.397Z,99.90
2018-07-03T04:32:53.183Z,99.90
2018-07-03T04:35:20.977Z,99.90
2018-07-03T04:37:48.731Z,99.90
2018-07-03T04:40:16.507Z,99.90
2018-07-03T04:42:44.283Z,99.90
2018-07-03T04:45:12.053Z,99.90
2018-07-03T04:47:39.831Z,99.90
2018-07-03T04:50:07.651Z,99.90
2018-07-03T04:52:35.595Z,99.90
2018-07-03T04:55:03.425Z,99.90
2018-07-03T04:57:31.332Z,99.90
2018-07-03T04:59:59.183Z,99.90
2018-07-03T05:02:26.935Z,99.90
2018-07-03T05:04:54.721Z,99.90
2018-07-03T05:07:22.531Z,99.90
2018-07-03T05:09:50.250Z,99.90
2018-07-03T05:12:18.030Z,99.90
2018-07-03T05:17:13.608Z,99.90
2018-07-03T05:19:41.401Z,99.90
2018-07-03T05:22:09.227Z,99.90
2018-07-03T05:24:39.992Z,99.90
2018-07-03T05:27:07.714Z,99.90
2018-07-03T05:29:35.493Z,99.90
2018-07-03T05:32:03.251Z,99.90
2018-07-03T05:34:31.013Z,99.90
2018-07-03T05:36:58.809Z,99.90
2018-07-03T05:39:26.799Z,99.90
2018-07-03T05:41:54.626Z,99.90
2018-07-03T05:44:23.780Z,99.90
2018-07-03T05:46:51.591Z,99.90
2018-07-03T05:49:19.355Z,99.90
2018-07-03T05:51:47.128Z,99.90
2018-07-03T05:56:42.758Z,99.90
2018-07-03T05:59:10.518Z,99.90
2018-07-03T06:01:38.339Z,99.90
2018-07-03T06:04:06.127Z,99.90
2018-07-03T06:06:33.937Z,99.90
2018-07-03T06:09:01.743Z,99.90
2018-07-03T06:11:29.578Z,99.90
2018-07-03T06:21:20.409Z,99.90
2018-07-03T06:23:48.252Z,99.90
2018-07-03T06:26:16.436Z,99.90
2018-07-03T06:28:44.285Z,99.90
2018-07-03T06:31:12.063Z,99.90
2018-07-03T06:33:39.909Z,99.90
2018-07-03T06:36:07.928Z,99.90
2018-07-03T06:38:35.738Z,99.90
2018-07-03T06:41:03.507Z,99.90
2018-07-03T06:43:31.279Z,99.90
2018-07-03T06:45:59.052Z,99.90
2018-07-03T06:48:26.863Z,99.90
2018-07-03T06:50:54.942Z,99.90
2018-07-03T06:53:22.549Z,99.90
2018-07-03T06:55:50.414Z,99.90
2018-07-03T06:58:18.174Z,99.90
2018-07-03T07:00:53.205Z,99.90
2018-07-03T07:03:21.054Z,99.90
2018-07-03T07:05:48.886Z,99.90
2018-07-03T07:13:12.025Z,99.90
2018-07-03T07:15:40.092Z,99.90
2018-07-03T07:18:07.852Z,99.90
2018-07-03T07:20:35.621Z,99.90
2018-07-03T07:23:03.772Z,99.90
2018-07-03T07:25:31.607Z,99.90
2018-07-03T07:30:27.232Z,99.90
2018-07-03T07:32:55.042Z,99.90
2018-07-03T07:35:22.779Z,99.90
2018-07-03T07:40:18.386Z,99.90
2018-07-03T07:45:13.978Z,99.90
2018-07-03T07:47:41.781Z,99.50
2018-07-03T07:52:37.306Z,98.20
2018-07-03T07:55:05.074Z,97.50
2018-07-03T08:00:00.606Z,99.40
2018-07-03T08:04:56.010Z,98.40
2018-07-03T08:07:23.782Z,99.30
2018-07-03T08:09:51.562Z,98.70
2018-07-03T08:12:19.313Z,98.90
2018-07-03T08:14:47.045Z,98.90
2018-07-03T08:17:14.844Z,98.10
2018-07-03T08:22:10.377Z,97.90
2018-07-03T08:29:33.505Z,96.80
2018-07-03T08:32:01.373Z,96.40
2018-07-03T08:34:29.135Z,95.30
2018-07-03T08:36:57.006Z,95.70
2018-07-03T08:39:24.767Z,95.90
2018-07-03T08:41:52.650Z,95.50
2018-07-03T08:44:20.397Z,95.20
2018-07-03T08:46:48.183Z,93.70
2018-07-03T08:49:15.947Z,93.50
2018-07-03T08:51:43.800Z,94.40
2018-07-03T08:54:12.011Z,93.80
2018-07-03T08:56:39.825Z,93.00
2018-07-03T08:59:07.591Z,93.10
2018-07-03T09:01:35.368Z,92.60
2018-07-03T09:04:03.180Z,92.40
2018-07-03T09:06:31.009Z,93.20
2018-07-03T09:08:58.754Z,91.60
2018-07-03T09:11:26.702Z,90.90
2018-07-03T09:16:22.253Z,91.80
2018-07-03T09:18:50.051Z,91.60
2018-07-03T09:21:18.071Z,91.40
2018-07-03T09:23:45.852Z,91.80
2018-07-03T09:26:19.959Z,90.20
2018-07-03T09:28:47.679Z,89.30
2018-07-03T09:31:15.547Z,88.80
2018-07-03T09:36:11.016Z,88.70
2018-07-03T09:38:38.771Z,89.20
2018-07-03T09:41:06.655Z,88.80
2018-07-03T09:43:35.365Z,89.10
2018-07-03T09:46:03.297Z,86.90
2018-07-03T09:48:32.925Z,84.50
2018-07-03T09:51:00.738Z,85.10
2018-07-03T09:55:56.187Z,84.50
2018-07-03T09:58:23.912Z,84.60
2018-07-03T10:00:55.778Z,82.80
2018-07-03T10:03:24.748Z,83.80
2018-07-03T10:05:52.631Z,83.70
2018-07-03T10:10:48.110Z,81.20
2018-07-03T10:13:15.880Z,80.30
2018-07-03T10:15:43.682Z,79.30
2018-07-03T10:18:11.482Z,79.40
2018-07-03T10:20:39.314Z,78.80
2018-07-03T10:23:07.230Z,80.50
2018-07-03T10:25:35.057Z,78.90
2018-07-03T10:30:30.563Z,78.10
2018-07-03T10:32:58.333Z,76.50
2018-07-03T10:35:26.341Z,77.00
2018-07-03T10:37:54.206Z,77.90
2018-07-03T10:40:22.007Z,76.80
2018-07-03T10:42:49.786Z,75.30
2018-07-03T10:45:17.536Z,75.60
2018-07-03T10:47:45.326Z,74.70
2018-07-03T10:50:13.190Z,72.10
2018-07-03T10:52:40.937Z,73.60
2018-07-03T10:55:08.774Z,73.50
2018-07-03T10:57:36.558Z,71.50
2018-07-03T11:00:05.660Z,73.60
2018-07-03T11:02:33.499Z,70.60
2018-07-03T11:05:01.273Z,70.60
2018-07-03T11:07:29.039Z,71.50
2018-07-03T11:09:56.878Z,72.70
2018-07-03T11:12:24.635Z,70.90
2018-07-03T11:14:52.409Z,69.10
2018-07-03T11:17:20.183Z,69.60
2018-07-03T11:19:47.999Z,67.30
2018-07-03T11:22:15.777Z,68.60
2018-07-03T11:27:11.359Z,69.40
2018-07-03T11:29:39.436Z,69.50
2018-07-03T11:32:07.277Z,69.60
2018-07-03T11:34:35.043Z,69.80
2018-07-03T11:37:02.790Z,67.60
2018-07-03T11:39:30.566Z,68.00
2018-07-03T11:41:58.329Z,67.80
2018-07-03T11:44:26.133Z,64.80
2018-07-03T11:46:53.925Z,63.60
2018-07-03T11:51:49.334Z,66.60
2018-07-03T11:56:44.832Z,66.40
2018-07-03T11:59:12.682Z,65.40
2018-07-03T12:01:40.491Z,64.40
2018-07-03T12:04:08.282Z,64.30
2018-07-03T12:06:36.034Z,65.40
2018-07-03T12:09:07.023Z,66.10
2018-07-03T12:11:34.910Z,66.70
2018-07-03T12:14:03.515Z,66.00
2018-07-03T12:18:59.905Z,64.80
2018-07-03T12:21:28.173Z,63.90
2018-07-03T12:23:56.506Z,62.40
2018-07-03T12:26:24.311Z,63.90
2018-07-03T12:28:52.480Z,63.40
2018-07-03T12:31:20.538Z,62.70
2018-07-03T12:33:48.554Z,63.60
2018-07-03T12:36:16.741Z,62.10
2018-07-03T12:38:44.547Z,62.20
2018-07-03T12:41:12.338Z,62.90
2018-07-03T12:43:40.114Z,64.20
2018-07-03T12:46:07.937Z,63.70
2018-07-03T12:51:03.610Z,63.60
2018-07-03T12:53:31.422Z,62.70
2018-07-03T12:58:26.948Z,62.30
2018-07-03T13:00:54.892Z,61.40
2018-07-03T13:03:22.773Z,61.10
2018-07-03T13:05:50.597Z,61.70
2018-07-03T13:08:18.446Z,61.40
2018-07-03T13:10:46.339Z,65.30
2018-07-03T13:13:14.206Z,66.10
2018-07-03T13:15:42.007Z,64.60
2018-07-03T13:18:15.707Z,64.50
2018-07-03T13:20:43.506Z,64.60
2018-07-03T13:23:11.451Z,63.70
2018-07-03T13:28:06.982Z,65.20
2018-07-03T13:30:34.938Z,63.20
2018-07-03T13:35:30.420Z,61.10
2018-07-03T13:37:58.162Z,60.50
2018-07-03T13:40:25.938Z,60.10
2018-07-03T13:42:54.277Z,59.50
2018-07-03T13:50:17.703Z,57.20
2018-07-03T13:52:46.063Z,57.50
2018-07-03T13:57:41.588Z,56.50
2018-07-03T14:00:10.012Z,55.80
2018-07-03T14:05:06.015Z,56.50
2018-07-03T14:07:33.866Z,55.80
2018-07-03T14:14:57.299Z,54.80
2018-07-03T14:17:25.042Z,54.90
2018-07-03T14:19:52.789Z,55.80
2018-07-03T14:22:21.572Z,57.50
2018-07-03T14:24:49.271Z,58.50
2018-07-03T14:27:16.996Z,58.50
2018-07-03T14:29:44.765Z,59.10
2018-07-03T14:32:12.664Z,59.40
2018-07-03T14:34:40.475Z,59.80
2018-07-03T14:37:08.369Z,60.80
2018-07-03T14:42:04.294Z,58.00
2018-07-03T14:44:32.097Z,57.80
2018-07-03T14:46:59.987Z,57.60
2018-07-03T14:49:27.792Z,57.60
2018-07-03T14:51:55.542Z,57.20
2018-07-03T14:54:23.286Z,56.00
2018-07-03T14:56:51.052Z,56.00
2018-07-03T14:59:18.787Z,55.50
2018-07-03T15:01:46.593Z,55.90
2018-07-03T15:09:11.463Z,55.00
2018-07-03T15:11:39.592Z,54.50
2018-07-03T15:16:35.298Z,52.80
2018-07-03T15:19:08.876Z,54.40
2018-07-03T15:21:36.642Z,53.00
2018-07-03T15:24:06.107Z,51.60
2018-07-03T15:26:33.947Z,51.00
2018-07-03T15:29:01.723Z,50.20
2018-07-03T15:31:29.442Z,48.60
2018-07-03T15:33:57.198Z,49.40
2018-07-03T15:36:25.209Z,49.40
2018-07-03T15:38:52.997Z,48.60
2018-07-03T15:48:49.570Z,57.20
2018-07-03T15:51:17.360Z,56.10
2018-07-03T15:53:45.290Z,55.20
2018-07-03T15:58:40.785Z,54.50
2018-07-03T16:01:08.574Z,53.40
2018-07-03T16:04:13.085Z,54.50
2018-07-03T16:06:53.217Z,54.20
2018-07-03T16:09:21.054Z,55.40
2018-07-03T16:11:48.801Z,56.70
2018-07-03T16:14:16.667Z,56.60
2018-07-03T16:16:44.461Z,55.70
2018-07-03T16:19:17.995Z,54.80
2018-07-03T16:21:45.743Z,54.20
2018-07-03T16:24:13.525Z,54.30
2018-07-03T16:26:41.319Z,55.80
2018-07-03T16:29:10.721Z,56.00
2018-07-03T16:31:38.897Z,55.80
2018-07-03T16:34:06.767Z,54.50
2018-07-03T16:36:34.731Z,55.70
2018-07-03T16:41:31.123Z,52.40
2018-07-03T16:43:58.863Z,53.10
2018-07-03T16:46:26.608Z,53.40
2018-07-03T16:51:22.208Z,53.00
2018-07-03T16:53:50.133Z,51.50
2018-07-03T16:56:18.034Z,53.20
2018-07-03T16:58:45.858Z,54.30
2018-07-03T17:01:13.637Z,54.00
2018-07-03T17:03:41.551Z,55.90
2018-07-03T17:08:37.143Z,54.60
2018-07-03T17:11:04.955Z,52.50
2018-07-03T17:16:00.427Z,52.20
2018-07-03T17:18:30.158Z,53.30
2018-07-03T17:20:58.144Z,53.50
2018-07-03T17:23:26.034Z,54.30
2018-07-03T17:28:21.675Z,55.50
2018-07-03T17:30:49.444Z,53.90
2018-07-03T17:33:17.284Z,53.70
2018-07-03T17:35:44.993Z,53.00
2018-07-03T17:38:12.854Z,53.10
2018-07-03T17:40:52.049Z,54.20
2018-07-03T17:43:32.524Z,54.60
2018-07-03T17:46:08.014Z,54.30
2018-07-03T17:48:35.874Z,54.00
2018-07-03T17:51:03.650Z,53.70
2018-07-03T17:53:31.480Z,53.90
2018-07-03T17:55:59.238Z,53.50
2018-07-03T17:58:27.068Z,53.80
2018-07-03T18:00:54.958Z,53.50
2018-07-03T18:03:22.803Z,53.80
2018-07-03T18:05:50.787Z,54.70
2018-07-03T18:08:18.674Z,54.70
2018-07-03T18:10:46.689Z,55.40
2018-07-03T18:13:14.489Z,55.10
2018-07-03T18:15:42.342Z,55.50
2018-07-03T18:18:10.159Z,56.00
2018-07-03T18:20:37.967Z,56.50
2018-07-03T18:23:05.691Z,57.60
2018-07-03T18:25:33.598Z,58.30
2018-07-03T18:30:29.122Z,58.60
2018-07-03T18:32:56.925Z,58.10
2018-07-03T18:35:27.125Z,57.10
2018-07-03T18:37:54.880Z,57.20
2018-07-03T18:40:22.809Z,58.10
2018-07-03T18:42:50.654Z,59.30
2018-07-03T18:45:18.531Z,59.20
2018-07-03T18:47:46.333Z,59.40
2018-07-03T18:50:17.329Z,60.40
2018-07-03T18:52:45.306Z,60.90
2018-07-03T18:55:13.106Z,60.40
2018-07-03T18:57:40.922Z,60.50
2018-07-03T19:00:09.933Z,61.60
2018-07-03T19:02:37.885Z,62.20
2018-07-03T19:05:05.686Z,62.90
2018-07-03T19:07:33.448Z,64.00
2018-07-03T19:10:01.180Z,64.20
2018-07-03T19:12:29.088Z,64.00
2018-07-03T19:14:57.081Z,64.80
2018-07-03T19:19:52.585Z,67.20
2018-07-03T19:22:20.360Z,67.90
2018-07-03T19:27:15.974Z,67.50
2018-07-03T19:29:43.693Z,67.80
2018-07-03T19:32:11.658Z,67.80
2018-07-03T19:34:39.445Z,68.30
2018-07-03T19:37:07.391Z,68.70
2018-07-03T19:39:35.139Z,69.60
2018-07-03T19:42:03.104Z,70.10
2018-07-03T19:44:30.991Z,71.30
2018-07-03T19:46:58.862Z,72.80
2018-07-03T19:49:26.630Z,73.70
2018-07-03T19:51:54.497Z,73.90
2018-07-03T19:54:22.280Z,74.40
2018-07-03T19:56:50.343Z,73.40
2018-07-03T19:59:18.223Z,74.60
2018-07-03T20:01:46.017Z,74.90
2018-07-03T20:04:13.962Z,75.40
2018-07-03T20:06:42.024Z,76.20
2018-07-03T20:09:11.775Z,76.20
2018-07-03T20:11:39.550Z,76.20
2018-07-03T20:14:07.858Z,76.50
2018-07-03T20:16:35.859Z,77.10
2018-07-03T20:19:03.803Z,77.60
2018-07-03T20:21:31.871Z,78.00
2018-07-03T20:23:59.758Z,78.50
2018-07-03T20:26:27.643Z,78.90
2018-07-03T20:28:55.524Z,79.20
2018-07-03T20:31:23.497Z,80.40
2018-07-03T20:33:51.356Z,80.80
2018-07-03T20:36:19.200Z,80.10
2018-07-03T20:38:47.003Z,80.50
2018-07-03T20:41:14.826Z,81.70
2018-07-03T20:43:42.644Z,82.10
2018-07-03T20:46:10.678Z,83.00
2018-07-03T20:51:06.291Z,82.80
2018-07-03T20:53:34.107Z,84.00
2018-07-03T20:56:01.996Z,84.50
2018-07-03T20:58:29.795Z,84.70
2018-07-03T21:03:25.698Z,84.80
2018-07-03T21:05:53.581Z,85.70
2018-07-03T21:08:21.470Z,86.40
2018-07-03T21:13:16.882Z,89.40
2018-07-03T21:15:44.602Z,89.60
2018-07-03T21:18:12.445Z,88.40
2018-07-03T21:20:40.374Z,89.70
2018-07-03T21:25:35.913Z,91.10
2018-07-03T21:28:03.823Z,91.40
2018-07-03T21:30:31.532Z,91.20
2018-07-03T21:32:59.323Z,91.50
2018-07-03T21:35:27.169Z,91.30
2018-07-03T21:37:54.915Z,91.90
2018-07-03T21:40:22.677Z,93.00
2018-07-03T21:42:50.534Z,93.70
2018-07-03T21:45:18.337Z,93.20
2018-07-03T21:50:13.943Z,97.00
2018-07-03T21:52:41.665Z,97.20
2018-07-03T21:55:09.476Z,97.00
2018-07-03T21:57:37.241Z,97.30
2018-07-03T22:02:34.258Z,98.10
2018-07-03T22:05:02.038Z,98.50
2018-07-03T22:07:29.996Z,99.90
2018-07-03T22:09:57.751Z,99.90
2018-07-03T22:12:25.546Z,99.90
2018-07-03T22:14:53.387Z,99.90
2018-07-03T22:17:21.177Z,99.90
2018-07-03T22:19:48.913Z,99.90
2018-07-03T22:22:16.734Z,99.90
2018-07-03T22:24:44.491Z,99.90
2018-07-03T22:27:12.293Z,99.90
2018-07-03T22:29:40.073Z,99.90
2018-07-03T22:32:07.939Z,99.90
2018-07-03T22:34:35.769Z,99.90
2018-07-03T22:39:31.356Z,99.90
2018-07-03T22:41:59.085Z,99.90
2018-07-03T22:44:26.965Z,99.90
2018-07-03T22:46:54.734Z,99.90
2018-07-03T22:49:22.570Z,99.90
2018-07-03T22:51:50.305Z,99.90
2018-07-03T22:54:18.060Z,99.90
2018-07-03T22:56:45.826Z,99.90
2018-07-03T22:59:13.587Z,99.90
2018-07-03T23:01:41.338Z,99.90
2018-07-03T23:04:09.266Z,99.90
2018-07-03T23:06:37.071Z,99.90
2018-07-03T23:09:06.534Z,99.90
2018-07-03T23:11:34.349Z,99.90
2018-07-03T23:14:02.113Z,99.90
2018-07-03T23:16:30.093Z,99.90
2018-07-03T23:21:25.506Z,99.90
2018-07-03T23:26:21.021Z,99.90
2018-07-03T23:28:48.801Z,99.90
2018-07-03T23:31:16.559Z,99.90
2018-07-03T23:33:44.346Z,99.90
2018-07-03T23:36:12.097Z,99.90
2018-07-03T23:41:07.615Z,99.90
2018-07-03T23:43:35.356Z,99.90
2018-07-03T23:46:02.113Z,99.90
2018-07-03T23:54:01.237Z,99.90
2018-07-03T23:56:46.786Z,99.90
2018-07-03T23:59:31.964Z,99.90
